Rudd, Iowa
Current Conditions -  °F | °C
As of 11:55 AM on Wednesday 28 Jan 2015 (Local Time) from KCCY Reporting Station
Haze Haze  
Wind Chill: 21°   Ceiling: 900
Heat Index: 32°   Visibility: 4mi
Dew Point: 32°   Wind: 16mph
Humidity: 100%   Direction: 140°SE
Pressure: 29.92"   Gusts: 23mph
Location:  43.13°N, 92.91°W
Report Text: KCCY 281755Z AUTO 14014G20KT 4SM BR OVC009 M00/M00 A2992 RMK AO2
Loading
Personal Weather Stations






























Interactive Weather Map New forecast layout! Learn more

10-Day Weather Forecast

Advertisements
Track Severe Weather on mobile